sensor_id;sensor_type;location;lat;lon;timestamp;pressure;altitude;pressure_sealevel;temperature;humidity
30110;BME280;14965;50.660;13.226;2023-02-20T00:01:15;95458.53;;;1.92;100.00
30110;BME280;14965;50.660;13.226;2023-02-20T00:03:41;95461.66;;;1.94;100.00
30110;BME280;14965;50.660;13.226;2023-02-20T00:06:09;95451.84;;;1.90;100.00
30110;BME280;14965;50.660;13.226;2023-02-20T00:08:35;95455.78;;;1.92;100.00
30110;BME280;14965;50.660;13.226;2023-02-20T00:11:00;95448.41;;;1.93;100.00
30110;BME280;14965;50.660;13.226;2023-02-20T00:13:27;95443.69;;;1.90;100.00
30110;BME280;14965;50.660;13.226;2023-02-20T00:15:52;95442.53;;;1.91;100.00
30110;BME280;14965;50.660;13.226;2023-02-20T00:18:18;95444.84;;;1.89;100.00
30110;BME280;14965;50.660;13.226;2023-02-20T00:20:44;95447.97;;;1.91;100.00
30110;BME280;14965;50.660;13.226;2023-02-20T00:23:12;95444.91;;;1.92;100.00
30110;BME280;14965;50.660;13.226;2023-02-20T00:25:38;95442.19;;;1.96;100.00
30110;BME280;14965;50.660;13.226;2023-02-20T00:28:04;95439.19;;;2.01;100.00
30110;BME280;14965;50.660;13.226;2023-02-20T00:30:30;95438.84;;;2.06;100.00
30110;BME280;14965;50.660;13.226;2023-02-20T00:32:57;95441.97;;;2.08;100.00
30110;BME280;14965;50.660;13.226;2023-02-20T00:35:25;95445.91;;;2.11;100.00
30110;BME280;14965;50.660;13.226;2023-02-20T00:37:52;95448.69;;;2.14;100.00
30110;BME280;14965;50.660;13.226;2023-02-20T00:40:22;95439.78;;;2.17;100.00
30110;BME280;14965;50.660;13.226;2023-02-20T00:42:49;95446.84;;;2.22;100.00
30110;BME280;14965;50.660;13.226;2023-02-20T00:45:16;95435.19;;;2.25;100.00
30110;BME280;14965;50.660;13.226;2023-02-20T00:47:43;95443.41;;;2.29;100.00
30110;BME280;14965;50.660;13.226;2023-02-20T00:50:12;95439.94;;;2.32;100.00
30110;BME280;14965;50.660;13.226;2023-02-20T00:52:38;95432.97;;;2.34;100.00
30110;BME280;14965;50.660;13.226;2023-02-20T00:55:04;95429.88;;;2.36;100.00
30110;BME280;14965;50.660;13.226;2023-02-20T00:57:32;95422.09;;;2.38;100.00
30110;BME280;14965;50.660;13.226;2023-02-20T00:59:58;95418.22;;;2.39;100.00
30110;BME280;14965;50.660;13.226;2023-02-20T01:02:24;95430.25;;;2.38;100.00
30110;BME280;14965;50.660;13.226;2023-02-20T01:04:50;95430.56;;;2.29;100.00
30110;BME280;14965;50.660;13.226;2023-02-20T01:07:16;95445.78;;;2.30;100.00
30110;BME280;14965;50.660;13.226;2023-02-20T01:09:42;95439.16;;;2.31;100.00
30110;BME280;14965;50.660;13.226;2023-02-20T01:12:08;95436.09;;;2.36;100.00
30110;BME280;14965;50.660;13.226;2023-02-20T01:14:36;95436.16;;;2.40;100.00
30110;BME280;14965;50.660;13.226;2023-02-20T01:17:02;95427.22;;;2.43;100.00
30110;BME280;14965;50.660;13.226;2023-02-20T01:19:28;95424.13;;;2.44;100.00
30110;BME280;14965;50.660;13.226;2023-02-20T01:21:54;95415.16;;;2.44;100.00
30110;BME280;14965;50.660;13.226;2023-02-20T01:24:20;95397.25;;;2.46;100.00
30110;BME280;14965;50.660;13.226;2023-02-20T01:26:48;95399.63;;;2.48;100.00
30110;BME280;14965;50.660;13.226;2023-02-20T01:29:15;95386.00;;;2.48;100.00
30110;BME280;14965;50.660;13.226;2023-02-20T01:31:48;95391.44;;;2.48;100.00
30110;BME280;14965;50.660;13.226;2023-02-20T01:34:14;95396.91;;;2.48;100.00
30110;BME280;14965;50.660;13.226;2023-02-20T01:36:46;95390.28;;;2.49;100.00
30110;BME280;14965;50.660;13.226;2023-02-20T01:39:12;95394.22;;;2.52;100.00
30110;BME280;14965;50.660;13.226;2023-02-20T01:41:38;95409.03;;;2.54;100.00
30110;BME280;14965;50.660;13.226;2023-02-20T01:44:04;95410.63;;;2.55;100.00
30110;BME280;14965;50.660;13.226;2023-02-20T01:46:53;95404.78;;;2.57;100.00
30110;BME280;14965;50.660;13.226;2023-02-20T01:49:29;95404.41;;;2.58;100.00
30110;BME280;14965;50.660;13.226;2023-02-20T01:52:06;95403.66;;;2.61;100.00
30110;BME280;14965;50.660;13.226;2023-02-20T01:54:36;95404.81;;;2.60;100.00
30110;BME280;14965;50.660;13.226;2023-02-20T01:57:08;95394.31;;;2.62;100.00
30110;BME280;14965;50.660;13.226;2023-02-20T01:59:37;95386.91;;;2.63;100.00
30110;BME280;14965;50.660;13.226;2023-02-20T02:02:07;95382.66;;;2.65;100.00
30110;BME280;14965;50.660;13.226;2023-02-20T02:04:35;95379.56;;;2.67;100.00
30110;BME280;14965;50.660;13.226;2023-02-20T02:07:04;95379.19;;;2.68;100.00
30110;BME280;14965;50.660;13.226;2023-02-20T02:09:40;95378.03;;;2.69;100.00
30110;BME280;14965;50.660;13.226;2023-02-20T02:12:07;95374.56;;;2.72;100.00
30110;BME280;14965;50.660;13.226;2023-02-20T02:14:34;95378.84;;;2.73;100.00
30110;BME280;14965;50.660;13.226;2023-02-20T02:17:22;95376.53;;;2.75;100.00
30110;BME280;14965;50.660;13.226;2023-02-20T02:20:45;95376.94;;;2.78;100.00
30110;BME280;14965;50.660;13.226;2023-02-20T02:27:21;95373.81;;;2.79;100.00
30110;BME280;14965;50.660;13.226;2023-02-20T02:30:30;95379.28;;;2.79;100.00
30110;BME280;14965;50.660;13.226;2023-02-20T02:36:28;95360.19;;;2.79;100.00
30110;BME280;14965;50.660;13.226;2023-02-20T02:39:05;95357.44;;;2.75;100.00
30110;BME280;14965;50.660;13.226;2023-02-20T02:41:44;95359.78;;;2.77;100.00
30110;BME280;14965;50.660;13.226;2023-02-20T02:44:19;95348.88;;;2.77;100.00
30110;BME280;14965;50.660;13.226;2023-02-20T02:46:55;95349.25;;;2.75;100.00
30110;BME280;14965;50.660;13.226;2023-02-20T02:49:28;95351.97;;;2.75;100.00
30110;BME280;14965;50.660;13.226;2023-02-20T02:52:00;95353.94;;;2.79;100.00
30110;BME280;14965;50.660;13.226;2023-02-20T02:54:27;95351.19;;;2.75;100.00
30110;BME280;14965;50.660;13.226;2023-02-20T02:57:22;95343.81;;;2.79;100.00
30110;BME280;14965;50.660;13.226;2023-02-20T02:59:55;95357.09;;;2.84;100.00
30110;BME280;14965;50.660;13.226;2023-02-20T03:02:27;95347.38;;;2.83;100.00
30110;BME280;14965;50.660;13.226;2023-02-20T03:04:57;95342.72;;;2.87;100.00
30110;BME280;14965;50.660;13.226;2023-02-20T03:07:27;95341.94;;;2.87;100.00
30110;BME280;14965;50.660;13.226;2023-02-20T03:10:00;95338.44;;;2.86;100.00
30110;BME280;14965;50.660;13.226;2023-02-20T03:12:30;95333.75;;;2.87;100.00
30110;BME280;14965;50.660;13.226;2023-02-20T03:15:03;95318.59;;;2.89;100.00
30110;BME280;14965;50.660;13.226;2023-02-20T03:17:35;95311.22;;;2.93;100.00
30110;BME280;14965;50.660;13.226;2023-02-20T03:20:08;95314.31;;;2.92;100.00
30110;BME280;14965;50.660;13.226;2023-02-20T03:22:41;95308.84;;;2.92;100.00
30110;BME280;14965;50.660;13.226;2023-02-20T03:25:14;95307.28;;;2.91;100.00
30110;BME280;14965;50.660;13.226;2023-02-20T03:27:47;95308.09;;;2.95;100.00
30110;BME280;14965;50.660;13.226;2023-02-20T03:30:21;95307.31;;;2.94;100.00
30110;BME280;14965;50.660;13.226;2023-02-20T03:32:56;95305.00;;;2.93;100.00
30110;BME280;14965;50.660;13.226;2023-02-20T03:35:25;95312.81;;;2.98;100.00
30110;BME280;14965;50.660;13.226;2023-02-20T03:37:54;95319.06;;;2.98;100.00
30110;BME280;14965;50.660;13.226;2023-02-20T03:40:22;95319.84;;;2.99;100.00
30110;BME280;14965;50.660;13.226;2023-02-20T03:42:57;95327.63;;;3.00;100.00
30110;BME280;14965;50.660;13.226;2023-02-20T03:45:25;95323.75;;;3.02;100.00
30110;BME280;14965;50.660;13.226;2023-02-20T03:47:58;95319.09;;;3.02;100.00
30110;BME280;14965;50.660;13.226;2023-02-20T03:50:25;95312.44;;;2.99;100.00
30110;BME280;14965;50.660;13.226;2023-02-20T03:52:53;95319.13;;;3.06;100.00
30110;BME280;14965;50.660;13.226;2023-02-20T03:55:19;95322.94;;;2.97;100.00
30110;BME280;14965;50.660;13.226;2023-02-20T03:57:49;95322.56;;;2.99;100.00
30110;BME280;14965;50.660;13.226;2023-02-20T04:00:19;95326.47;;;2.98;100.00
30110;BME280;14965;50.660;13.226;2023-02-20T04:02:50;95327.97;;;2.95;100.00
30110;BME280;14965;50.660;13.226;2023-02-20T04:05:21;95309.63;;;2.89;100.00
30110;BME280;14965;50.660;13.226;2023-02-20T04:07:55;95313.91;;;2.90;100.00
30110;BME280;14965;50.660;13.226;2023-02-20T04:10:29;95329.06;;;2.84;100.00
30110;BME280;14965;50.660;13.226;2023-02-20T04:12:57;95340.00;;;2.87;100.00
30110;BME280;14965;50.660;13.226;2023-02-20T04:15:24;95347.00;;;2.88;100.00
30110;BME280;14965;50.660;13.226;2023-02-20T04:17:56;95339.59;;;2.85;100.00
30110;BME280;14965;50.660;13.226;2023-02-20T04:20:22;95337.69;;;2.89;100.00
30110;BME280;14965;50.660;13.226;2023-02-20T04:22:51;95325.97;;;2.85;100.00
30110;BME280;14965;50.660;13.226;2023-02-20T04:25:31;95322.78;;;2.80;100.00
30110;BME280;14965;50.660;13.226;2023-02-20T04:27:59;95339.56;;;2.82;100.00
30110;BME280;14965;50.660;13.226;2023-02-20T04:30:25;95329.84;;;2.81;100.00
30110;BME280;14965;50.660;13.226;2023-02-20T04:32:50;95319.28;;;2.79;100.00
30110;BME280;14965;50.660;13.226;2023-02-20T04:35:19;95322.44;;;2.81;100.00
30110;BME280;14965;50.660;13.226;2023-02-20T04:37:45;95325.13;;;2.78;100.00
30110;BME280;14965;50.660;13.226;2023-02-20T04:40:16;95325.50;;;2.76;100.00
30110;BME280;14965;50.660;13.226;2023-02-20T04:42:44;95323.09;;;2.71;100.00
30110;BME280;14965;50.660;13.226;2023-02-20T04:45:10;95325.84;;;2.71;100.00
30110;BME280;14965;50.660;13.226;2023-02-20T04:47:36;95319.19;;;2.68;100.00
30110;BME280;14965;50.660;13.226;2023-02-20T04:50:03;95316.47;;;2.68;100.00
30110;BME280;14965;50.660;13.226;2023-02-20T04:52:29;95305.53;;;2.65;100.00
30110;BME280;14965;50.660;13.226;2023-02-20T04:54:55;95305.56;;;2.68;100.00
30110;BME280;14965;50.660;13.226;2023-02-20T04:57:21;95305.53;;;2.65;100.00
30110;BME280;14965;50.660;13.226;2023-02-20T04:59:49;95282.56;;;2.66;100.00
30110;BME280;14965;50.660;13.226;2023-02-20T05:02:16;95293.88;;;2.68;100.00
30110;BME280;14965;50.660;13.226;2023-02-20T05:04:42;95301.63;;;2.66;100.00
30110;BME280;14965;50.660;13.226;2023-02-20T05:07:08;95322.69;;;2.65;100.00
30110;BME280;14965;50.660;13.226;2023-02-20T05:09:34;95315.66;;;2.64;100.00
30110;BME280;14965;50.660;13.226;2023-02-20T05:12:00;95323.06;;;2.67;100.00
30110;BME280;14965;50.660;13.226;2023-02-20T05:14:25;95326.56;;;2.64;100.00
30110;BME280;14965;50.660;13.226;2023-02-20T05:16:53;95318.03;;;2.69;100.00
30110;BME280;14965;50.660;13.226;2023-02-20T05:19:19;95311.41;;;2.70;100.00
30110;BME280;14965;50.660;13.226;2023-02-20T05:21:45;95321.16;;;2.71;100.00
30110;BME280;14965;50.660;13.226;2023-02-20T05:24:11;95318.44;;;2.71;100.00
30110;BME280;14965;50.660;13.226;2023-02-20T05:26:37;95313.31;;;2.66;100.00
30110;BME280;14965;50.660;13.226;2023-02-20T05:29:04;95315.69;;;2.68;100.00
30110;BME280;14965;50.660;13.226;2023-02-20T05:31:30;95301.63;;;2.66;100.00
30110;BME280;14965;50.660;13.226;2023-02-20T05:33:57;95295.44;;;2.69;100.00
30110;BME280;14965;50.660;13.226;2023-02-20T05:36:23;95297.75;;;2.67;100.00
30110;BME280;14965;50.660;13.226;2023-02-20T05:38:49;95300.81;;;2.62;100.00
30110;BME280;14965;50.660;13.226;2023-02-20T05:41:15;95309.44;;;2.64;100.00
30110;BME280;14965;50.660;13.226;2023-02-20T05:43:41;95300.44;;;2.60;100.00
30110;BME280;14965;50.660;13.226;2023-02-20T05:46:07;95293.38;;;2.55;100.00
30110;BME280;14965;50.660;13.226;2023-02-20T05:48:33;95288.25;;;2.50;100.00
30110;BME280;14965;50.660;13.226;2023-02-20T05:51:00;95288.16;;;2.39;100.00
30110;BME280;14965;50.660;13.226;2023-02-20T05:53:27;95295.97;;;2.41;100.00
30110;BME280;14965;50.660;13.226;2023-02-20T05:55:53;95283.47;;;2.36;100.00
30110;BME280;14965;50.660;13.226;2023-02-20T05:58:19;95272.56;;;2.36;100.00
30110;BME280;14965;50.660;13.226;2023-02-20T06:00:45;95275.66;;;2.35;100.00
30110;BME280;14965;50.660;13.226;2023-02-20T06:03:13;95282.66;;;2.32;100.00
30110;BME280;14965;50.660;13.226;2023-02-20T06:05:39;95275.22;;;2.29;100.00
30110;BME280;14965;50.660;13.226;2023-02-20T06:08:06;95274.41;;;2.25;100.00
30110;BME280;14965;50.660;13.226;2023-02-20T06:10:33;95277.53;;;2.27;100.00
30110;BME280;14965;50.660;13.226;2023-02-20T06:12:59;95274.06;;;2.30;100.00
30110;BME280;14965;50.660;13.226;2023-02-20T06:15:26;95281.47;;;2.33;100.00
30110;BME280;14965;50.660;13.226;2023-02-20T06:17:52;95277.59;;;2.31;100.00
30110;BME280;14965;50.660;13.226;2023-02-20T06:20:18;95285.34;;;2.29;100.00
30110;BME280;14965;50.660;13.226;2023-02-20T06:22:45;95288.88;;;2.33;100.00
30110;BME280;14965;50.660;13.226;2023-02-20T06:25:13;95288.91;;;2.36;100.00
30110;BME280;14965;50.660;13.226;2023-02-20T06:27:39;95297.09;;;2.36;100.00
30110;BME280;14965;50.660;13.226;2023-02-20T06:30:06;95278.81;;;2.40;100.00
30110;BME280;14965;50.660;13.226;2023-02-20T06:32:32;95275.72;;;2.42;100.00
30110;BME280;14965;50.660;13.226;2023-02-20T06:34:58;95276.50;;;2.42;100.00
30110;BME280;14965;50.660;13.226;2023-02-20T06:37:24;95274.59;;;2.43;100.00
30110;BME280;14965;50.660;13.226;2023-02-20T06:39:50;95278.47;;;2.45;100.00
30110;BME280;14965;50.660;13.226;2023-02-20T06:42:17;95282.81;;;2.50;100.00
30110;BME280;14965;50.660;13.226;2023-02-20T06:44:43;95289.03;;;2.50;100.00
30110;BME280;14965;50.660;13.226;2023-02-20T06:47:10;95282.81;;;2.50;100.00
30110;BME280;14965;50.660;13.226;2023-02-20T06:49:37;95273.91;;;2.57;100.00
30110;BME280;14965;50.660;13.226;2023-02-20T06:52:04;95270.44;;;2.60;100.00
30110;BME280;14965;50.660;13.226;2023-02-20T06:54:30;95272.00;;;2.61;100.00
30110;BME280;14965;50.660;13.226;2023-02-20T06:56:56;95273.56;;;2.62;100.00
30110;BME280;14965;50.660;13.226;2023-02-20T06:59:23;95283.69;;;2.61;100.00
30110;BME280;14965;50.660;13.226;2023-02-20T07:01:49;95272.78;;;2.61;100.00
30110;BME280;14965;50.660;13.226;2023-02-20T07:04:18;95281.38;;;2.67;100.00
30110;BME280;14965;50.660;13.226;2023-02-20T07:06:45;95273.16;;;2.63;100.00
30110;BME280;14965;50.660;13.226;2023-02-20T07:09:11;95277.44;;;2.61;100.00
30110;BME280;14965;50.660;13.226;2023-02-20T07:11:37;95259.53;;;2.60;100.00
30110;BME280;14965;50.660;13.226;2023-02-20T07:14:04;95268.94;;;2.69;100.00
30110;BME280;14965;50.660;13.226;2023-02-20T07:16:31;95274.47;;;2.77;100.00
30110;BME280;14965;50.660;13.226;2023-02-20T07:18:57;95272.91;;;2.79;100.00
30110;BME280;14965;50.660;13.226;2023-02-20T07:21:23;95262.78;;;2.80;100.00
30110;BME280;14965;50.660;13.226;2023-02-20T07:23:49;95273.69;;;2.80;100.00
30110;BME280;14965;50.660;13.226;2023-02-20T07:26:21;95274.50;;;2.84;100.00
30110;BME280;14965;50.660;13.226;2023-02-20T07:28:47;95270.22;;;2.83;100.00
30110;BME280;14965;50.660;13.226;2023-02-20T07:31:13;95267.91;;;2.88;100.00
30110;BME280;14965;50.660;13.226;2023-02-20T07:33:40;95276.88;;;2.85;100.00
30110;BME280;14965;50.660;13.226;2023-02-20T07:36:07;95252.69;;;2.80;100.00
30110;BME280;14965;50.660;13.226;2023-02-20T07:38:33;95258.13;;;2.80;100.00
30110;BME280;14965;50.660;13.226;2023-02-20T07:40:59;95249.94;;;2.84;100.00
30110;BME280;14965;50.660;13.226;2023-02-20T07:43:25;95248.81;;;2.88;100.00
30110;BME280;14965;50.660;13.226;2023-02-20T07:45:51;95248.88;;;2.95;100.00
30110;BME280;14965;50.660;13.226;2023-02-20T07:48:17;95245.78;;;3.00;100.00
30110;BME280;14965;50.660;13.226;2023-02-20T07:50:44;95242.31;;;3.07;100.00
30110;BME280;14965;50.660;13.226;2023-02-20T07:53:14;95244.28;;;3.10;100.00
30110;BME280;14965;50.660;13.226;2023-02-20T07:55:40;95245.84;;;3.11;100.00
30110;BME280;14965;50.660;13.226;2023-02-20T07:58:06;95247.03;;;3.17;100.00
30110;BME280;14965;50.660;13.226;2023-02-20T08:00:32;95240.03;;;3.16;100.00
30110;BME280;14965;50.660;13.226;2023-02-20T08:02:58;95222.91;;;3.19;100.00
30110;BME280;14965;50.660;13.226;2023-02-20T08:05:25;95220.19;;;3.23;100.00
30110;BME280;14965;50.660;13.226;2023-02-20T08:07:53;95209.69;;;3.29;100.00
30110;BME280;14965;50.660;13.226;2023-02-20T08:10:24;95218.66;;;3.33;100.00
30110;BME280;14965;50.660;13.226;2023-02-20T08:12:52;95224.91;;;3.33;100.00
30110;BME280;14965;50.660;13.226;2023-02-20T08:15:20;95222.19;;;3.37;100.00
30110;BME280;14965;50.660;13.226;2023-02-20T08:17:47;95221.44;;;3.40;100.00
30110;BME280;14965;50.660;13.226;2023-02-20T08:20:14;95226.13;;;3.43;100.00
30110;BME280;14965;50.660;13.226;2023-02-20T08:22:42;95212.50;;;3.54;100.00
30110;BME280;14965;50.660;13.226;2023-02-20T08:25:10;95210.63;;;3.68;100.00
30110;BME280;14965;50.660;13.226;2023-02-20T08:27:36;95220.03;;;3.85;99.12
30110;BME280;14965;50.660;13.226;2023-02-20T08:30:02;95223.59;;;4.07;98.76
30110;BME280;14965;50.660;13.226;2023-02-20T08:32:28;95225.19;;;4.15;97.16
30110;BME280;14965;50.660;13.226;2023-02-20T08:34:54;95210.34;;;4.34;97.23
30110;BME280;14965;50.660;13.226;2023-02-20T08:37:20;95184.56;;;4.46;97.52
30110;BME280;14965;50.660;13.226;2023-02-20T08:39:46;95168.16;;;4.49;96.04
30110;BME280;14965;50.660;13.226;2023-02-20T08:42:15;95162.28;;;4.58;94.91
30110;BME280;14965;50.660;13.226;2023-02-20T08:44:41;95166.56;;;4.59;94.19
30110;BME280;14965;50.660;13.226;2023-02-20T08:47:07;95162.28;;;4.72;95.87
30110;BME280;14965;50.660;13.226;2023-02-20T08:49:34;95175.16;;;4.83;94.30
30110;BME280;14965;50.660;13.226;2023-02-20T08:52:00;95181.03;;;4.78;93.53
30110;BME280;14965;50.660;13.226;2023-02-20T08:54:26;95184.16;;;4.72;92.11
30110;BME280;14965;50.660;13.226;2023-02-20T08:56:51;95183.78;;;4.78;94.44
30110;BME280;14965;50.660;13.226;2023-02-20T08:59:19;95189.25;;;4.81;93.68
30110;BME280;14965;50.660;13.226;2023-02-20T09:01:44;95172.41;;;4.83;92.54
30110;BME280;14965;50.660;13.226;2023-02-20T09:04:10;95168.91;;;4.89;93.18
30110;BME280;14965;50.660;13.226;2023-02-20T09:06:36;95169.63;;;4.97;92.50
30110;BME280;14965;50.660;13.226;2023-02-20T09:09:03;95161.06;;;4.98;92.43
30110;BME280;14965;50.660;13.226;2023-02-20T09:11:29;95162.97;;;5.05;92.85
30110;BME280;14965;50.660;13.226;2023-02-20T09:13:55;95151.25;;;5.08;93.07
30110;BME280;14965;50.660;13.226;2023-02-20T09:16:23;95150.47;;;5.11;91.88
30110;BME280;14965;50.660;13.226;2023-02-20T09:18:49;95148.84;;;5.21;91.95
30110;BME280;14965;50.660;13.226;2023-02-20T09:21:18;95142.19;;;5.25;92.13
30110;BME280;14965;50.660;13.226;2023-02-20T09:23:44;95162.88;;;5.37;91.50
30110;BME280;14965;50.660;13.226;2023-02-20T09:26:10;95162.84;;;5.48;90.87
30110;BME280;14965;50.660;13.226;2023-02-20T09:28:36;95162.84;;;5.48;88.90
30110;BME280;14965;50.660;13.226;2023-02-20T09:31:02;95170.22;;;5.58;90.35
30110;BME280;14965;50.660;13.226;2023-02-20T09:33:30;95174.91;;;5.61;89.86
30110;BME280;14965;50.660;13.226;2023-02-20T09:35:56;95141.97;;;5.68;89.22
30110;BME280;14965;50.660;13.226;2023-02-20T09:38:24;95164.66;;;5.72;88.11
30110;BME280;14965;50.660;13.226;2023-02-20T09:40:55;95160.31;;;5.82;88.25
30110;BME280;14965;50.660;13.226;2023-02-20T09:43:35;95159.88;;;5.87;87.12
30110;BME280;14965;50.660;13.226;2023-02-20T09:46:09;95156.34;;;5.94;86.71
30110;BME280;14965;50.660;13.226;2023-02-20T09:48:54;95153.94;;;6.03;87.23
30110;BME280;14965;50.660;13.226;2023-02-20T09:51:27;95151.13;;;6.10;86.33
30110;BME280;14965;50.660;13.226;2023-02-20T09:53:59;95150.28;;;6.20;85.80
30110;BME280;14965;50.660;13.226;2023-02-20T09:56:30;95149.03;;;6.32;84.68
30110;BME280;14965;50.660;13.226;2023-02-20T09:59:04;95148.66;;;6.27;83.51
30110;BME280;14965;50.660;13.226;2023-02-20T10:01:34;95141.59;;;6.33;84.11
30110;BME280;14965;50.660;13.226;2023-02-20T10:04:12;95121.13;;;6.41;84.56
30110;BME280;14965;50.660;13.226;2023-02-20T10:06:39;95123.50;;;6.39;82.45
30110;BME280;14965;50.660;13.226;2023-02-20T10:09:10;95125.06;;;6.40;83.08
30110;BME280;14965;50.660;13.226;2023-02-20T10:11:57;95111.75;;;6.38;81.77
30110;BME280;14965;50.660;13.226;2023-02-20T10:15:09;95117.66;;;6.37;83.19
30110;BME280;14965;50.660;13.226;2023-02-20T10:17:49;95119.97;;;6.38;81.61
30110;BME280;14965;50.660;13.226;2023-02-20T10:20:26;95116.00;;;6.43;81.62
30110;BME280;14965;50.660;13.226;2023-02-20T10:23:00;95111.25;;;6.51;80.47
30110;BME280;14965;50.660;13.226;2023-02-20T10:25:32;95105.72;;;6.54;79.43
30110;BME280;14965;50.660;13.226;2023-02-20T10:28:05;95100.50;;;6.67;79.50
30110;BME280;14965;50.660;13.226;2023-02-20T10:30:40;95104.28;;;6.80;79.17
30110;BME280;14965;50.660;13.226;2023-02-20T10:33:21;95090.41;;;6.94;77.62
30110;BME280;14965;50.660;13.226;2023-02-20T10:35:55;95082.19;;;6.94;75.25
30110;BME280;14965;50.660;13.226;2023-02-20T10:38:28;95086.09;;;6.93;76.18
30110;BME280;14965;50.660;13.226;2023-02-20T10:41:04;95101.72;;;7.00;76.92
30110;BME280;14965;50.660;13.226;2023-02-20T10:43:39;95107.50;;;7.09;75.64
30110;BME280;14965;50.660;13.226;2023-02-20T10:46:12;95099.03;;;7.27;75.38
30110;BME280;14965;50.660;13.226;2023-02-20T10:48:40;95091.75;;;7.44;75.23
30110;BME280;14965;50.660;13.226;2023-02-20T10:51:15;95087.00;;;7.48;70.66
30110;BME280;14965;50.660;13.226;2023-02-20T10:53:48;95085.34;;;7.54;72.73
30110;BME280;14965;50.660;13.226;2023-02-20T10:56:23;95099.41;;;7.60;73.74
30110;BME280;14965;50.660;13.226;2023-02-20T10:59:01;95080.84;;;7.67;69.02
30110;BME280;14965;50.660;13.226;2023-02-20T11:01:32;95074.78;;;7.80;71.29
30110;BME280;14965;50.660;13.226;2023-02-20T11:04:03;95073.13;;;7.86;68.77
30110;BME280;14965;50.660;13.226;2023-02-20T11:06:39;95070.84;;;7.81;68.53
30110;BME280;14965;50.660;13.226;2023-02-20T11:09:05;95068.47;;;7.83;68.93
30110;BME280;14965;50.660;13.226;2023-02-20T11:11:34;95065.19;;;7.91;68.95
30110;BME280;14965;50.660;13.226;2023-02-20T11:14:11;95051.00;;;7.93;68.72
30110;BME280;14965;50.660;13.226;2023-02-20T11:16:45;95050.25;;;7.92;68.19
30110;BME280;14965;50.660;13.226;2023-02-20T11:19:20;95056.56;;;7.89;66.21
30110;BME280;14965;50.660;13.226;2023-02-20T11:21:50;95045.13;;;7.94;66.68
30110;BME280;14965;50.660;13.226;2023-02-20T11:24:32;95047.91;;;8.14;69.05
30110;BME280;14965;50.660;13.226;2023-02-20T11:27:08;95041.53;;;8.21;66.68
30110;BME280;14965;50.660;13.226;2023-02-20T11:29:43;95029.44;;;8.15;65.34
30110;BME280;14965;50.660;13.226;2023-02-20T11:32:28;95054.28;;;8.11;66.42
30110;BME280;14965;50.660;13.226;2023-02-20T11:35:25;95016.16;;;8.10;66.99
30110;BME280;14965;50.660;13.226;2023-02-20T11:38:21;95026.34;;;8.13;67.37
30110;BME280;14965;50.660;13.226;2023-02-20T11:41:01;95020.00;;;8.16;65.69
30110;BME280;14965;50.660;13.226;2023-02-20T11:43:31;95009.28;;;8.21;63.65
30110;BME280;14965;50.660;13.226;2023-02-20T11:46:08;95005.28;;;8.26;65.23
30110;BME280;14965;50.660;13.226;2023-02-20T11:48:34;94992.59;;;8.32;65.35
30110;BME280;14965;50.660;13.226;2023-02-20T11:51:01;95001.97;;;8.35;64.06
30110;BME280;14965;50.660;13.226;2023-02-20T11:53:30;94987.22;;;8.25;62.95
30110;BME280;14965;50.660;13.226;2023-02-20T11:56:09;94987.66;;;8.23;63.40
30110;BME280;14965;50.660;13.226;2023-02-20T11:58:36;94987.50;;;8.31;65.79
30110;BME280;14965;50.660;13.226;2023-02-20T12:01:03;94983.53;;;8.32;63.77
30110;BME280;14965;50.660;13.226;2023-02-20T12:03:32;94961.47;;;8.35;64.10
30110;BME280;14965;50.660;13.226;2023-02-20T12:06:00;94953.94;;;8.39;62.58
30110;BME280;14965;50.660;13.226;2023-02-20T12:08:50;94948.38;;;8.43;64.86
30110;BME280;14965;50.660;13.226;2023-02-20T12:11:19;94935.47;;;8.40;62.14
30110;BME280;14965;50.660;13.226;2023-02-20T12:13:48;94954.78;;;8.36;62.85
30110;BME280;14965;50.660;13.226;2023-02-20T12:16:29;94954.06;;;8.32;62.09
30110;BME280;14965;50.660;13.226;2023-02-20T12:19:09;94961.13;;;8.33;62.66
30110;BME280;14965;50.660;13.226;2023-02-20T12:21:51;94957.59;;;8.33;63.39
30110;BME280;14965;50.660;13.226;2023-02-20T12:24:38;94957.59;;;8.33;62.53
30110;BME280;14965;50.660;13.226;2023-02-20T12:27:30;94934.03;;;8.32;64.19
30110;BME280;14965;50.660;13.226;2023-02-20T12:30:14;94945.50;;;8.27;62.16
30110;BME280;14965;50.660;13.226;2023-02-20T12:33:02;94940.31;;;8.32;64.07
30110;BME280;14965;50.660;13.226;2023-02-20T12:35:35;94925.69;;;8.35;63.74
30110;BME280;14965;50.660;13.226;2023-02-20T12:38:28;94925.75;;;8.32;62.04
30110;BME280;14965;50.660;13.226;2023-02-20T12:44:30;94921.19;;;8.25;64.15
30110;BME280;14965;50.660;13.226;2023-02-20T12:47:12;94922.31;;;8.28;64.19
30110;BME280;14965;50.660;13.226;2023-02-20T12:50:21;94901.44;;;8.30;65.45
30110;BME280;14965;50.660;13.226;2023-02-20T12:53:11;94915.13;;;8.34;66.17
30110;BME280;14965;50.660;13.226;2023-02-20T12:55:50;94891.69;;;8.26;65.97
30110;BME280;14965;50.660;13.226;2023-02-20T12:58:36;94894.44;;;8.26;65.40
30110;BME280;14965;50.660;13.226;2023-02-20T13:01:08;94886.13;;;8.29;66.57
30110;BME280;14965;50.660;13.226;2023-02-20T13:03:45;94881.66;;;8.35;67.11
30110;BME280;14965;50.660;13.226;2023-02-20T13:06:23;94870.28;;;8.37;67.14
30110;BME280;14965;50.660;13.226;2023-02-20T13:09:02;94872.72;;;8.31;66.47
30110;BME280;14965;50.660;13.226;2023-02-20T13:11:38;94863.69;;;8.31;66.17
30110;BME280;14965;50.660;13.226;2023-02-20T13:14:27;94859.03;;;8.28;67.11
30110;BME280;14965;50.660;13.226;2023-02-20T13:17:10;94863.34;;;8.29;67.30
30110;BME280;14965;50.660;13.226;2023-02-20T13:19:42;94846.84;;;8.29;66.79
30110;BME280;14965;50.660;13.226;2023-02-20T13:22:10;94841.16;;;8.36;68.54